sensor_id;sensor_type;location;lat;lon;timestamp;temperature;humidity
5940;DHT22;2995;-31.998;115.906;2023-03-20T00:00:37;26.60;99.70
5940;DHT22;2995;-31.998;115.906;2023-03-20T00:03:10;26.80;99.40
5940;DHT22;2995;-31.998;115.906;2023-03-20T00:05:41;26.90;99.50
5940;DHT22;2995;-31.998;115.906;2023-03-20T00:08:12;27.00;99.60
5940;DHT22;2995;-31.998;115.906;2023-03-20T00:10:45;27.00;99.50
5940;DHT22;2995;-31.998;115.906;2023-03-20T00:13:21;27.10;99.40
5940;DHT22;2995;-31.998;115.906;2023-03-20T00:15:57;27.20;99.30
5940;DHT22;2995;-31.998;115.906;2023-03-20T00:18:28;27.20;99.60
5940;DHT22;2995;-31.998;115.906;2023-03-20T00:21:00;27.30;99.30
5940;DHT22;2995;-31.998;115.906;2023-03-20T00:23:31;27.30;99.20
5940;DHT22;2995;-31.998;115.906;2023-03-20T00:26:02;27.20;99.30
5940;DHT22;2995;-31.998;115.906;2023-03-20T00:28:43;27.30;99.60
5940;DHT22;2995;-31.998;115.906;2023-03-20T00:31:22;27.40;99.30
5940;DHT22;2995;-31.998;115.906;2023-03-20T00:33:54;27.50;99.50
5940;DHT22;2995;-31.998;115.906;2023-03-20T00:36:26;27.60;99.40
5940;DHT22;2995;-31.998;115.906;2023-03-20T00:38:57;27.80;99.40
5940;DHT22;2995;-31.998;115.906;2023-03-20T00:41:30;27.90;99.00
5940;DHT22;2995;-31.998;115.906;2023-03-20T00:44:03;27.90;99.00
5940;DHT22;2995;-31.998;115.906;2023-03-20T00:46:41;28.00;99.00
5940;DHT22;2995;-31.998;115.906;2023-03-20T00:49:12;28.00;99.10
5940;DHT22;2995;-31.998;115.906;2023-03-20T00:51:43;28.10;99.10
5940;DHT22;2995;-31.998;115.906;2023-03-20T00:54:16;28.20;99.10
5940;DHT22;2995;-31.998;115.906;2023-03-20T00:56:50;28.30;99.30
5940;DHT22;2995;-31.998;115.906;2023-03-20T00:59:23;28.40;99.20
5940;DHT22;2995;-31.998;115.906;2023-03-20T01:01:57;28.40;99.20
5940;DHT22;2995;-31.998;115.906;2023-03-20T01:04:33;28.50;98.90
5940;DHT22;2995;-31.998;115.906;2023-03-20T01:07:05;28.50;99.20
5940;DHT22;2995;-31.998;115.906;2023-03-20T01:09:36;28.70;99.20
5940;DHT22;2995;-31.998;115.906;2023-03-20T01:12:10;28.80;99.30
5940;DHT22;2995;-31.998;115.906;2023-03-20T01:14:42;28.70;99.00
5940;DHT22;2995;-31.998;115.906;2023-03-20T01:17:18;28.80;98.90
5940;DHT22;2995;-31.998;115.906;2023-03-20T01:19:50;29.00;98.70
5940;DHT22;2995;-31.998;115.906;2023-03-20T01:22:21;29.00;99.00
5940;DHT22;2995;-31.998;115.906;2023-03-20T01:24:53;29.10;98.90
5940;DHT22;2995;-31.998;115.906;2023-03-20T01:27:24;29.20;98.90
5940;DHT22;2995;-31.998;115.906;2023-03-20T01:29:55;29.20;98.70
5940;DHT22;2995;-31.998;115.906;2023-03-20T01:32:28;29.30;98.60
5940;DHT22;2995;-31.998;115.906;2023-03-20T01:35:00;29.40;99.00
5940;DHT22;2995;-31.998;115.906;2023-03-20T01:37:31;29.50;98.80
5940;DHT22;2995;-31.998;115.906;2023-03-20T01:40:02;29.60;98.80
5940;DHT22;2995;-31.998;115.906;2023-03-20T01:42:34;29.70;98.60
5940;DHT22;2995;-31.998;115.906;2023-03-20T01:45:13;29.70;98.60
5940;DHT22;2995;-31.998;115.906;2023-03-20T01:47:47;29.60;98.30
5940;DHT22;2995;-31.998;115.906;2023-03-20T01:50:32;29.50;98.20
5940;DHT22;2995;-31.998;115.906;2023-03-20T01:53:08;29.50;98.30
5940;DHT22;2995;-31.998;115.906;2023-03-20T01:55:41;29.60;98.70
5940;DHT22;2995;-31.998;115.906;2023-03-20T01:58:17;29.80;98.30
5940;DHT22;2995;-31.998;115.906;2023-03-20T02:00:49;29.80;98.50
5940;DHT22;2995;-31.998;115.906;2023-03-20T02:03:23;30.00;98.70
5940;DHT22;2995;-31.998;115.906;2023-03-20T02:05:55;30.10;98.40
5940;DHT22;2995;-31.998;115.906;2023-03-20T02:08:28;30.10;98.60
5940;DHT22;2995;-31.998;115.906;2023-03-20T02:11:01;30.30;98.20
5940;DHT22;2995;-31.998;115.906;2023-03-20T02:13:33;30.40;97.80
5940;DHT22;2995;-31.998;115.906;2023-03-20T02:16:08;30.50;98.10
5940;DHT22;2995;-31.998;115.906;2023-03-20T02:18:43;30.50;98.20
5940;DHT22;2995;-31.998;115.906;2023-03-20T02:21:39;30.70;98.30
5940;DHT22;2995;-31.998;115.906;2023-03-20T02:24:35;30.80;98.00
5940;DHT22;2995;-31.998;115.906;2023-03-20T02:27:17;30.90;98.00
5940;DHT22;2995;-31.998;115.906;2023-03-20T02:30:12;31.10;97.50
5940;DHT22;2995;-31.998;115.906;2023-03-20T02:33:10;31.10;97.30
5940;DHT22;2995;-31.998;115.906;2023-03-20T02:39:06;31.40;97.40
5940;DHT22;2995;-31.998;115.906;2023-03-20T02:41:47;31.20;96.90
5940;DHT22;2995;-31.998;115.906;2023-03-20T02:44:23;31.10;97.20
5940;DHT22;2995;-31.998;115.906;2023-03-20T02:46:59;31.20;97.30
5940;DHT22;2995;-31.998;115.906;2023-03-20T02:49:46;31.10;96.80
5940;DHT22;2995;-31.998;115.906;2023-03-20T02:52:22;31.20;96.90
5940;DHT22;2995;-31.998;115.906;2023-03-20T02:55:09;31.20;97.30
5940;DHT22;2995;-31.998;115.906;2023-03-20T02:57:49;31.50;97.20
5940;DHT22;2995;-31.998;115.906;2023-03-20T03:00:26;31.50;96.90
5940;DHT22;2995;-31.998;115.906;2023-03-20T03:03:06;31.50;96.90
5940;DHT22;2995;-31.998;115.906;2023-03-20T03:05:42;31.70;97.00
5940;DHT22;2995;-31.998;115.906;2023-03-20T03:08:16;31.80;96.70
5940;DHT22;2995;-31.998;115.906;2023-03-20T03:10:54;31.90;96.40
5940;DHT22;2995;-31.998;115.906;2023-03-20T03:13:29;32.10;96.80
5940;DHT22;2995;-31.998;115.906;2023-03-20T03:16:04;32.20;96.50
5940;DHT22;2995;-31.998;115.906;2023-03-20T03:18:38;32.30;96.50
5940;DHT22;2995;-31.998;115.906;2023-03-20T03:21:11;32.30;95.90
5940;DHT22;2995;-31.998;115.906;2023-03-20T03:23:46;32.20;96.40
5940;DHT22;2995;-31.998;115.906;2023-03-20T03:26:24;32.30;96.10
5940;DHT22;2995;-31.998;115.906;2023-03-20T03:28:58;32.30;96.10
5940;DHT22;2995;-31.998;115.906;2023-03-20T03:31:31;32.50;97.00
5940;DHT22;2995;-31.998;115.906;2023-03-20T03:34:03;32.60;96.00
5940;DHT22;2995;-31.998;115.906;2023-03-20T03:36:40;32.60;96.60
5940;DHT22;2995;-31.998;115.906;2023-03-20T03:39:23;32.60;95.80
5940;DHT22;2995;-31.998;115.906;2023-03-20T03:42:05;32.70;95.90
5940;DHT22;2995;-31.998;115.906;2023-03-20T03:44:43;32.60;95.90
5940;DHT22;2995;-31.998;115.906;2023-03-20T03:47:20;32.70;95.40
5940;DHT22;2995;-31.998;115.906;2023-03-20T03:49:58;32.70;96.20
5940;DHT22;2995;-31.998;115.906;2023-03-20T03:52:32;32.80;95.50
5940;DHT22;2995;-31.998;115.906;2023-03-20T03:55:07;32.90;95.70
5940;DHT22;2995;-31.998;115.906;2023-03-20T03:57:44;33.10;95.60
5940;DHT22;2995;-31.998;115.906;2023-03-20T04:00:19;33.30;95.40
5940;DHT22;2995;-31.998;115.906;2023-03-20T04:02:54;33.30;95.00
5940;DHT22;2995;-31.998;115.906;2023-03-20T04:05:29;33.20;94.90
5940;DHT22;2995;-31.998;115.906;2023-03-20T04:08:02;33.30;95.10
5940;DHT22;2995;-31.998;115.906;2023-03-20T04:10:34;33.40;94.60
5940;DHT22;2995;-31.998;115.906;2023-03-20T04:13:07;33.40;95.00
5940;DHT22;2995;-31.998;115.906;2023-03-20T04:15:38;33.50;96.00
5940;DHT22;2995;-31.998;115.906;2023-03-20T04:18:15;33.50;94.60
5940;DHT22;2995;-31.998;115.906;2023-03-20T04:20:46;33.60;94.90
5940;DHT22;2995;-31.998;115.906;2023-03-20T04:23:18;33.40;94.30
5940;DHT22;2995;-31.998;115.906;2023-03-20T04:25:50;33.60;94.70
5940;DHT22;2995;-31.998;115.906;2023-03-20T04:28:23;33.90;95.10
5940;DHT22;2995;-31.998;115.906;2023-03-20T04:30:55;33.90;93.80
5940;DHT22;2995;-31.998;115.906;2023-03-20T04:33:27;33.80;94.00
5940;DHT22;2995;-31.998;115.906;2023-03-20T04:35:58;33.80;94.70
5940;DHT22;2995;-31.998;115.906;2023-03-20T04:38:30;33.90;93.90
5940;DHT22;2995;-31.998;115.906;2023-03-20T04:41:01;34.00;93.80
5940;DHT22;2995;-31.998;115.906;2023-03-20T04:43:34;33.80;93.90
5940;DHT22;2995;-31.998;115.906;2023-03-20T04:46:06;33.90;94.40
5940;DHT22;2995;-31.998;115.906;2023-03-20T04:48:37;34.00;93.70
5940;DHT22;2995;-31.998;115.906;2023-03-20T04:51:09;33.90;93.70
5940;DHT22;2995;-31.998;115.906;2023-03-20T04:53:40;33.80;93.70
5940;DHT22;2995;-31.998;115.906;2023-03-20T04:56:11;33.90;93.70
5940;DHT22;2995;-31.998;115.906;2023-03-20T04:58:44;34.00;93.70
5940;DHT22;2995;-31.998;115.906;2023-03-20T05:01:15;34.20;93.50
5940;DHT22;2995;-31.998;115.906;2023-03-20T05:03:47;34.40;93.60
5940;DHT22;2995;-31.998;115.906;2023-03-20T05:06:18;34.40;93.00
5940;DHT22;2995;-31.998;115.906;2023-03-20T05:08:50;34.10;93.20
5940;DHT22;2995;-31.998;115.906;2023-03-20T05:11:21;34.20;93.30
5940;DHT22;2995;-31.998;115.906;2023-03-20T05:13:54;34.40;93.50
5940;DHT22;2995;-31.998;115.906;2023-03-20T05:16:25;34.70;93.60
5940;DHT22;2995;-31.998;115.906;2023-03-20T05:18:56;34.30;92.40
5940;DHT22;2995;-31.998;115.906;2023-03-20T05:21:28;34.40;93.10
5940;DHT22;2995;-31.998;115.906;2023-03-20T05:24:05;34.70;93.00
5940;DHT22;2995;-31.998;115.906;2023-03-20T05:26:36;34.90;92.70
5940;DHT22;2995;-31.998;115.906;2023-03-20T05:29:09;34.70;92.60
5940;DHT22;2995;-31.998;115.906;2023-03-20T05:31:42;34.60;92.20
5940;DHT22;2995;-31.998;115.906;2023-03-20T05:34:14;34.70;92.30
5940;DHT22;2995;-31.998;115.906;2023-03-20T05:36:45;34.70;92.70
5940;DHT22;2995;-31.998;115.906;2023-03-20T05:39:17;35.00;92.80
5940;DHT22;2995;-31.998;115.906;2023-03-20T05:41:49;35.20;92.30
5940;DHT22;2995;-31.998;115.906;2023-03-20T05:44:22;35.10;92.00
5940;DHT22;2995;-31.998;115.906;2023-03-20T05:46:53;35.10;91.90
5940;DHT22;2995;-31.998;115.906;2023-03-20T05:49:24;35.20;91.60
5940;DHT22;2995;-31.998;115.906;2023-03-20T05:51:56;35.10;91.70
5940;DHT22;2995;-31.998;115.906;2023-03-20T05:54:27;35.00;91.90
5940;DHT22;2995;-31.998;115.906;2023-03-20T05:56:58;35.10;91.90
5940;DHT22;2995;-31.998;115.906;2023-03-20T05:59:32;35.10;91.70
5940;DHT22;2995;-31.998;115.906;2023-03-20T06:02:03;35.10;91.50
5940;DHT22;2995;-31.998;115.906;2023-03-20T06:04:34;35.10;91.60
5940;DHT22;2995;-31.998;115.906;2023-03-20T06:07:06;35.30;91.80
5940;DHT22;2995;-31.998;115.906;2023-03-20T06:09:37;35.50;91.70
5940;DHT22;2995;-31.998;115.906;2023-03-20T06:12:08;35.50;91.60
5940;DHT22;2995;-31.998;115.906;2023-03-20T06:14:41;35.60;91.20
5940;DHT22;2995;-31.998;115.906;2023-03-20T06:17:13;35.60;91.00
5940;DHT22;2995;-31.998;115.906;2023-03-20T06:19:44;35.70;91.40
5940;DHT22;2995;-31.998;115.906;2023-03-20T06:22:15;35.60;90.90
5940;DHT22;2995;-31.998;115.906;2023-03-20T06:24:46;35.60;91.40
5940;DHT22;2995;-31.998;115.906;2023-03-20T06:27:19;35.70;91.20
5940;DHT22;2995;-31.998;115.906;2023-03-20T06:29:53;35.80;91.20
5940;DHT22;2995;-31.998;115.906;2023-03-20T06:32:25;35.80;91.10
5940;DHT22;2995;-31.998;115.906;2023-03-20T06:34:56;35.90;90.80
5940;DHT22;2995;-31.998;115.906;2023-03-20T06:37:27;36.10;90.70
5940;DHT22;2995;-31.998;115.906;2023-03-20T06:39:59;36.10;91.20
5940;DHT22;2995;-31.998;115.906;2023-03-20T06:42:30;36.00;95.80
5940;DHT22;2995;-31.998;115.906;2023-03-20T06:45:04;35.90;97.50
5940;DHT22;2995;-31.998;115.906;2023-03-20T06:47:35;35.80;97.80
5940;DHT22;2995;-31.998;115.906;2023-03-20T06:50:08;35.80;98.30
5940;DHT22;2995;-31.998;115.906;2023-03-20T06:52:39;35.60;98.10
5940;DHT22;2995;-31.998;115.906;2023-03-20T06:55:11;35.40;98.40
5940;DHT22;2995;-31.998;115.906;2023-03-20T06:57:43;35.00;98.40
5940;DHT22;2995;-31.998;115.906;2023-03-20T07:00:17;35.00;97.70
5940;DHT22;2995;-31.998;115.906;2023-03-20T07:02:49;35.00;97.60
5940;DHT22;2995;-31.998;115.906;2023-03-20T07:05:20;35.00;97.80
5940;DHT22;2995;-31.998;115.906;2023-03-20T07:07:51;34.90;96.90
5940;DHT22;2995;-31.998;115.906;2023-03-20T07:10:22;34.70;96.70
5940;DHT22;2995;-31.998;115.906;2023-03-20T07:12:53;34.60;96.40
5940;DHT22;2995;-31.998;115.906;2023-03-20T07:15:27;34.50;96.20
5940;DHT22;2995;-31.998;115.906;2023-03-20T07:17:59;34.10;96.60
5940;DHT22;2995;-31.998;115.906;2023-03-20T07:20:30;34.10;96.50
5940;DHT22;2995;-31.998;115.906;2023-03-20T07:23:02;34.10;96.90
5940;DHT22;2995;-31.998;115.906;2023-03-20T07:25:34;34.10;97.00
5940;DHT22;2995;-31.998;115.906;2023-03-20T07:28:05;34.10;96.70
5940;DHT22;2995;-31.998;115.906;2023-03-20T07:30:39;34.00;96.80
5940;DHT22;2995;-31.998;115.906;2023-03-20T07:33:10;33.80;96.90
5940;DHT22;2995;-31.998;115.906;2023-03-20T07:35:41;33.60;97.00
5940;DHT22;2995;-31.998;115.906;2023-03-20T07:38:12;33.50;97.20
5940;DHT22;2995;-31.998;115.906;2023-03-20T07:40:44;33.60;97.60
5940;DHT22;2995;-31.998;115.906;2023-03-20T07:43:15;33.60;96.90
5940;DHT22;2995;-31.998;115.906;2023-03-20T07:45:50;33.40;96.50
5940;DHT22;2995;-31.998;115.906;2023-03-20T07:48:24;33.50;97.20
5940;DHT22;2995;-31.998;115.906;2023-03-20T07:50:58;33.50;97.20
5940;DHT22;2995;-31.998;115.906;2023-03-20T07:53:30;33.40;97.70
5940;DHT22;2995;-31.998;115.906;2023-03-20T07:56:02;33.30;98.00
5940;DHT22;2995;-31.998;115.906;2023-03-20T07:58:33;33.30;98.60
5940;DHT22;2995;-31.998;115.906;2023-03-20T08:01:07;33.20;97.50
5940;DHT22;2995;-31.998;115.906;2023-03-20T08:03:41;33.00;97.50
5940;DHT22;2995;-31.998;115.906;2023-03-20T08:06:15;32.90;97.20
5940;DHT22;2995;-31.998;115.906;2023-03-20T08:08:46;32.80;97.50
5940;DHT22;2995;-31.998;115.906;2023-03-20T08:11:19;32.80;96.90
5940;DHT22;2995;-31.998;115.906;2023-03-20T08:13:50;32.60;96.40
5940;DHT22;2995;-31.998;115.906;2023-03-20T08:16:23;32.50;97.00
5940;DHT22;2995;-31.998;115.906;2023-03-20T08:18:55;32.50;97.70
5940;DHT22;2995;-31.998;115.906;2023-03-20T08:21:28;32.60;97.90
5940;DHT22;2995;-31.998;115.906;2023-03-20T08:24:00;32.50;98.00
5940;DHT22;2995;-31.998;115.906;2023-03-20T08:26:31;32.50;98.40
5940;DHT22;2995;-31.998;115.906;2023-03-20T08:29:02;32.50;98.40
5940;DHT22;2995;-31.998;115.906;2023-03-20T08:31:36;32.70;98.80
5940;DHT22;2995;-31.998;115.906;2023-03-20T08:34:07;32.50;98.80
5940;DHT22;2995;-31.998;115.906;2023-03-20T08:36:38;32.50;99.00
5940;DHT22;2995;-31.998;115.906;2023-03-20T08:39:09;32.50;99.20
5940;DHT22;2995;-31.998;115.906;2023-03-20T08:41:41;32.50;99.50
5940;DHT22;2995;-31.998;115.906;2023-03-20T08:44:12;32.50;99.50
5940;DHT22;2995;-31.998;115.906;2023-03-20T08:46:45;32.40;99.90
5940;DHT22;2995;-31.998;115.906;2023-03-20T08:49:17;32.60;99.60
5940;DHT22;2995;-31.998;115.906;2023-03-20T08:51:48;32.50;98.50
5940;DHT22;2995;-31.998;115.906;2023-03-20T08:54:19;32.30;98.30
5940;DHT22;2995;-31.998;115.906;2023-03-20T08:56:50;32.20;98.30
5940;DHT22;2995;-31.998;115.906;2023-03-20T08:59:22;32.30;99.40
5940;DHT22;2995;-31.998;115.906;2023-03-20T09:01:56;32.20;98.80
5940;DHT22;2995;-31.998;115.906;2023-03-20T09:04:28;32.20;98.80
5940;DHT22;2995;-31.998;115.906;2023-03-20T09:07:00;32.20;98.70
5940;DHT22;2995;-31.998;115.906;2023-03-20T09:09:31;32.30;99.10
5940;DHT22;2995;-31.998;115.906;2023-03-20T09:12:03;32.10;98.70
5940;DHT22;2995;-31.998;115.906;2023-03-20T09:14:34;32.10;98.70
5940;DHT22;2995;-31.998;115.906;2023-03-20T09:17:08;32.00;98.90
5940;DHT22;2995;-31.998;115.906;2023-03-20T09:19:39;31.90;98.80
5940;DHT22;2995;-31.998;115.906;2023-03-20T09:22:12;31.90;99.10
5940;DHT22;2995;-31.998;115.906;2023-03-20T09:24:45;31.80;98.90
5940;DHT22;2995;-31.998;115.906;2023-03-20T09:27:16;31.70;99.10
5940;DHT22;2995;-31.998;115.906;2023-03-20T09:29:47;31.70;99.50
5940;DHT22;2995;-31.998;115.906;2023-03-20T09:32:20;31.60;99.80
5940;DHT22;2995;-31.998;115.906;2023-03-20T09:34:51;31.50;99.90
5940;DHT22;2995;-31.998;115.906;2023-03-20T09:37:23;31.60;99.90
5940;DHT22;2995;-31.998;115.906;2023-03-20T09:39:54;31.40;99.90
5940;DHT22;2995;-31.998;115.906;2023-03-20T09:42:36;31.40;99.90
5940;DHT22;2995;-31.998;115.906;2023-03-20T09:45:13;31.30;99.90
5940;DHT22;2995;-31.998;115.906;2023-03-20T09:47:53;31.20;99.90
5940;DHT22;2995;-31.998;115.906;2023-03-20T09:50:33;30.90;99.90
5940;DHT22;2995;-31.998;115.906;2023-03-20T09:53:09;30.70;99.90
5940;DHT22;2995;-31.998;115.906;2023-03-20T09:55:42;30.80;99.90
5940;DHT22;2995;-31.998;115.906;2023-03-20T09:58:17;30.70;99.90
5940;DHT22;2995;-31.998;115.906;2023-03-20T10:00:50;30.60;99.90
5940;DHT22;2995;-31.998;115.906;2023-03-20T10:03:27;30.40;99.90
5940;DHT22;2995;-31.998;115.906;2023-03-20T10:06:04;30.40;99.90
5940;DHT22;2995;-31.998;115.906;2023-03-20T10:08:38;30.40;99.90
5940;DHT22;2995;-31.998;115.906;2023-03-20T10:11:31;30.40;99.90
5940;DHT22;2995;-31.998;115.906;2023-03-20T10:14:23;30.30;99.90
5940;DHT22;2995;-31.998;115.906;2023-03-20T10:17:05;30.10;99.90
5940;DHT22;2995;-31.998;115.906;2023-03-20T10:19:47;29.90;99.90
5940;DHT22;2995;-31.998;115.906;2023-03-20T10:22:23;29.70;99.90
5940;DHT22;2995;-31.998;115.906;2023-03-20T10:24:58;29.40;99.90
5940;DHT22;2995;-31.998;115.906;2023-03-20T10:27:36;29.30;99.90
5940;DHT22;2995;-31.998;115.906;2023-03-20T10:30:24;29.20;99.90
5940;DHT22;2995;-31.998;115.906;2023-03-20T10:33:05;29.10;99.90
5940;DHT22;2995;-31.998;115.906;2023-03-20T10:35:44;29.00;99.90
5940;DHT22;2995;-31.998;115.906;2023-03-20T10:38:27;28.90;99.90
5940;DHT22;2995;-31.998;115.906;2023-03-20T10:41:02;28.90;99.90
5940;DHT22;2995;-31.998;115.906;2023-03-20T10:43:35;28.90;99.90
5940;DHT22;2995;-31.998;115.906;2023-03-20T10:46:10;29.00;99.90
5940;DHT22;2995;-31.998;115.906;2023-03-20T10:48:45;28.90;99.90
5940;DHT22;2995;-31.998;115.906;2023-03-20T10:51:23;28.80;99.90
5940;DHT22;2995;-31.998;115.906;2023-03-20T10:53:57;28.80;99.90
5940;DHT22;2995;-31.998;115.906;2023-03-20T10:56:34;28.80;99.90
5940;DHT22;2995;-31.998;115.906;2023-03-20T10:59:09;28.60;99.90
5940;DHT22;2995;-31.998;115.906;2023-03-20T11:01:42;28.60;99.90
5940;DHT22;2995;-31.998;115.906;2023-03-20T11:04:13;28.50;99.90
5940;DHT22;2995;-31.998;115.906;2023-03-20T11:06:50;28.40;99.90
5940;DHT22;2995;-31.998;115.906;2023-03-20T11:09:25;28.50;99.90
5940;DHT22;2995;-31.998;115.906;2023-03-20T11:11:58;28.40;99.90
5940;DHT22;2995;-31.998;115.906;2023-03-20T11:14:34;28.20;99.90
5940;DHT22;2995;-31.998;115.906;2023-03-20T11:17:07;28.00;99.90
5940;DHT22;2995;-31.998;115.906;2023-03-20T11:19:40;28.00;99.90
5940;DHT22;2995;-31.998;115.906;2023-03-20T11:22:23;27.70;99.90
5940;DHT22;2995;-31.998;115.906;2023-03-20T11:24:56;27.70;99.90
5940;DHT22;2995;-31.998;115.906;2023-03-20T11:27:29;27.70;99.90
5940;DHT22;2995;-31.998;115.906;2023-03-20T11:30:03;27.70;99.90
5940;DHT22;2995;-31.998;115.906;2023-03-20T11:32:38;27.60;99.90
5940;DHT22;2995;-31.998;115.906;2023-03-20T11:35:18;27.70;99.90
5940;DHT22;2995;-31.998;115.906;2023-03-20T11:37:52;27.80;99.90
5940;DHT22;2995;-31.998;115.906;2023-03-20T11:40:29;27.70;99.90
5940;DHT22;2995;-31.998;115.906;2023-03-20T11:43:08;27.40;99.90
5940;DHT22;2995;-31.998;115.906;2023-03-20T11:45:41;27.30;99.90
5940;DHT22;2995;-31.998;115.906;2023-03-20T11:48:18;27.30;99.90
5940;DHT22;2995;-31.998;115.906;2023-03-20T11:50:55;27.00;99.90
5940;DHT22;2995;-31.998;115.906;2023-03-20T11:53:33;27.20;99.90
5940;DHT22;2995;-31.998;115.906;2023-03-20T11:56:10;27.10;99.90
5940;DHT22;2995;-31.998;115.906;2023-03-20T11:58:54;27.20;99.90
5940;DHT22;2995;-31.998;115.906;2023-03-20T12:01:26;27.20;99.90
5940;DHT22;2995;-31.998;115.906;2023-03-20T12:04:02;27.30;99.90
5940;DHT22;2995;-31.998;115.906;2023-03-20T12:06:46;27.40;99.90
5940;DHT22;2995;-31.998;115.906;2023-03-20T12:09:34;27.30;99.90
5940;DHT22;2995;-31.998;115.906;2023-03-20T12:14:57;27.20;99.90
5940;DHT22;2995;-31.998;115.906;2023-03-20T12:17:40;27.10;99.90
5940;DHT22;2995;-31.998;115.906;2023-03-20T12:20:23;27.10;99.90
5940;DHT22;2995;-31.998;115.906;2023-03-20T12:23:01;27.10;99.90
5940;DHT22;2995;-31.998;115.906;2023-03-20T12:25:43;27.10;99.90
5940;DHT22;2995;-31.998;115.906;2023-03-20T12:28:22;27.10;99.90
5940;DHT22;2995;-31.998;115.906;2023-03-20T12:31:02;27.00;99.90
5940;DHT22;2995;-31.998;115.906;2023-03-20T12:33:48;27.00;99.90
5940;DHT22;2995;-31.998;115.906;2023-03-20T12:36:28;27.20;99.90
5940;DHT22;2995;-31.998;115.906;2023-03-20T12:39:01;27.00;99.90
5940;DHT22;2995;-31.998;115.906;2023-03-20T12:41:40;26.90;99.90
5940;DHT22;2995;-31.998;115.906;2023-03-20T12:44:27;26.90;99.90
5940;DHT22;2995;-31.998;115.906;2023-03-20T12:47:08;27.00;99.90
5940;DHT22;2995;-31.998;115.906;2023-03-20T12:49:50;27.00;99.90
5940;DHT22;2995;-31.998;115.906;2023-03-20T12:52:31;26.90;99.90
5940;DHT22;2995;-31.998;115.906;2023-03-20T12:55:24;26.70;99.90
5940;DHT22;2995;-31.998;115.906;2023-03-20T12:58:12;26.70;99.90
5940;DHT22;2995;-31.998;115.906;2023-03-20T13:00:47;26.60;99.90
5940;DHT22;2995;-31.998;115.906;2023-03-20T13:03:41;26.40;99.90
5940;DHT22;2995;-31.998;115.906;2023-03-20T13:06:19;26.30;99.90
5940;DHT22;2995;-31.998;115.906;2023-03-20T13:09:26;26.30;99.90
5940;DHT22;2995;-31.998;115.906;2023-03-20T13:12:05;26.20;99.90
5940;DHT22;2995;-31.998;115.906;2023-03-20T13:14:46;26.20;99.90
5940;DHT22;2995;-31.998;115.906;2023-03-20T13:17:22;26.20;99.90
5940;DHT22;2995;-31.998;115.906;2023-03-20T13:20:12;26.20;99.90
5940;DHT22;2995;-31.998;115.906;2023-03-20T13:22:53;26.20;99.90
5940;DHT22;2995;-31.998;115.906;2023-03-20T13:25:49;26.10;99.90
5940;DHT22;2995;-31.998;115.906;2023-03-20T13:28:27;25.90;99.90
5940;DHT22;2995;-31.998;115.906;2023-03-20T13:31:08;25.70;99.90
5940;DHT22;2995;-31.998;115.906;2023-03-20T13:33:49;25.90;99.90
5940;DHT22;2995;-31.998;115.906;2023-03-20T13:36:41;25.80;99.90
5940;DHT22;2995;-31.998;115.906;2023-03-20T13:39:19;25.90;99.90
5940;DHT22;2995;-31.998;115.906;2023-03-20T13:41:55;26.00;99.90
5940;DHT22;2995;-31.998;115.906;2023-03-20T13:44:29;26.00;99.90
5940;DHT22;2995;-31.998;115.906;2023-03-20T13:47:07;25.90;99.90
5940;DHT22;2995;-31.998;115.906;2023-03-20T13:49:45;25.90;99.90
5940;DHT22;2995;-31.998;115.906;2023-03-20T13:52:19;25.60;99.90
5940;DHT22;2995;-31.998;115.906;2023-03-20T13:55:02;25.70;99.90
5940;DHT22;2995;-31.998;115.906;2023-03-20T13:57:57;25.80;99.90
5940;DHT22;2995;-31.998;115.906;2023-03-20T14:00:36;25.70;99.90
5940;DHT22;2995;-31.998;115.906;2023-03-20T14:03:27;25.60;99.90
5940;DHT22;2995;-31.998;115.906;2023-03-20T14:06:00;25.50;99.90
5940;DHT22;2995;-31.998;115.906;2023-03-20T14:08:35;25.30;99.90
5940;DHT22;2995;-31.998;115.906;2023-03-20T14:11:24;25.30;99.90
5940;DHT22;2995;-31.998;115.906;2023-03-20T14:14:05;25.40;99.90
5940;DHT22;2995;-31.998;115.906;2023-03-20T14:16:38;25.40;99.90
5940;DHT22;2995;-31.998;115.906;2023-03-20T14:19:17;25.40;99.90
5940;DHT22;2995;-31.998;115.906;2023-03-20T14:21:49;25.60;99.90
5940;DHT22;2995;-31.998;115.906;2023-03-20T14:24:25;25.60;99.90
5940;DHT22;2995;-31.998;115.906;2023-03-20T14:26:58;25.70;99.90
5940;DHT22;2995;-31.998;115.906;2023-03-20T14:29:36;26.00;99.90
5940;DHT22;2995;-31.998;115.906;2023-03-20T14:32:22;26.40;99.90
5940;DHT22;2995;-31.998;115.906;2023-03-20T14:35:20;26.40;99.90
5940;DHT22;2995;-31.998;115.906;2023-03-20T14:38:10;26.40;99.90
5940;DHT22;2995;-31.998;115.906;2023-03-20T14:40:55;26.30;99.90
5940;DHT22;2995;-31.998;115.906;2023-03-20T14:43:41;26.60;99.90
5940;DHT22;2995;-31.998;115.906;2023-03-20T14:46:19;26.60;99.90
5940;DHT22;2995;-31.998;115.906;2023-03-20T14:48:54;26.80;99.90
5940;DHT22;2995;-31.998;115.906;2023-03-20T14:51:32;26.70;99.90
5940;DHT22;2995;-31.998;115.906;2023-03-20T14:54:27;26.80;99.90
5940;DHT22;2995;-31.998;115.906;2023-03-20T14:57:09;26.70;99.90
5940;DHT22;2995;-31.998;115.906;2023-03-20T14:59:49;26.70;99.90
5940;DHT22;2995;-31.998;115.906;2023-03-20T15:02:25;26.80;99.90
5940;DHT22;2995;-31.998;115.906;2023-03-20T15:04:57;27.10;99.90
5940;DHT22;2995;-31.998;115.906;2023-03-20T15:07:32;26.90;99.90
5940;DHT22;2995;-31.998;115.906;2023-03-20T15:10:06;27.10;99.90
5940;DHT22;2995;-31.998;115.906;2023-03-20T15:12:37;27.40;99.90
5940;DHT22;2995;-31.998;115.906;2023-03-20T15:15:24;27.60;99.90
5940;DHT22;2995;-31.998;115.906;2023-03-20T15:18:01;27.60;99.90
5940;DHT22;2995;-31.998;115.906;2023-03-20T15:20:36;27.80;99.90
5940;DHT22;2995;-31.998;115.906;2023-03-20T15:23:09;27.80;99.90
5940;DHT22;2995;-31.998;115.906;2023-03-20T15:25:42;27.70;99.90
5940;DHT22;2995;-31.998;115.906;2023-03-20T15:28:15;27.70;99.90
5940;DHT22;2995;-31.998;115.906;2023-03-20T15:30:48;28.00;99.90
5940;DHT22;2995;-31.998;115.906;2023-03-20T15:33:23;28.10;99.90
5940;DHT22;2995;-31.998;115.906;2023-03-20T15:35:55;28.00;99.90
5940;DHT22;2995;-31.998;115.906;2023-03-20T15:38:32;28.20;99.90
5940;DHT22;2995;-31.998;115.906;2023-03-20T15:41:05;28.10;99.90
5940;DHT22;2995;-31.998;115.906;2023-03-20T15:43:37;28.00;99.90
5940;DHT22;2995;-31.998;115.906;2023-03-20T15:46:09;28.10;99.90
5940;DHT22;2995;-31.998;115.906;2023-03-20T15:48:45;28.20;99.90
5940;DHT22;2995;-31.998;115.906;2023-03-20T15:51:17;28.10;99.90
5940;DHT22;2995;-31.998;115.906;2023-03-20T15:53:51;28.10;99.90
5940;DHT22;2995;-31.998;115.906;2023-03-20T15:56:25;28.10;99.90
5940;DHT22;2995;-31.998;115.906;2023-03-20T15:58:57;28.10;99.90
5940;DHT22;2995;-31.998;115.906;2023-03-20T16:01:32;28.20;99.90
5940;DHT22;2995;-31.998;115.906;2023-03-20T16:04:04;28.20;99.90
5940;DHT22;2995;-31.998;115.906;2023-03-20T16:06:35;28.30;99.90
5940;DHT22;2995;-31.998;115.906;2023-03-20T16:09:16;28.20;99.90
5940;DHT22;2995;-31.998;115.906;2023-03-20T16:11:53;28.20;99.90